createdAt,value
2018-04-08T00:00:30.608Z,12.90
2018-04-08T00:02:58.159Z,13.57
2018-04-08T00:05:25.751Z,13.63
2018-04-08T00:07:53.342Z,13.10
2018-04-08T00:10:20.892Z,13.10
2018-04-08T00:12:48.464Z,13.00
2018-04-08T00:15:16.006Z,12.40
2018-04-08T00:17:43.575Z,13.83
2018-04-08T00:20:11.174Z,13.60
2018-04-08T00:22:38.772Z,12.90
2018-04-08T00:25:06.333Z,13.50
2018-04-08T00:27:33.898Z,13.60
2018-04-08T00:30:01.537Z,13.60
2018-04-08T00:32:29.080Z,13.13
2018-04-08T00:34:56.624Z,13.13
2018-04-08T00:37:24.197Z,13.20
2018-04-08T00:39:51.749Z,13.73
2018-04-08T00:42:19.333Z,14.57
2018-04-08T00:44:46.896Z,14.17
2018-04-08T00:47:14.467Z,13.13
2018-04-08T00:49:42.023Z,13.30
2018-04-08T00:52:09.587Z,14.20
2018-04-08T00:54:37.139Z,13.67
2018-04-08T00:57:05.057Z,14.03
2018-04-08T00:59:32.622Z,13.70
2018-04-08T01:02:00.159Z,14.17
2018-04-08T01:04:27.748Z,13.53
2018-04-08T01:06:55.312Z,14.13
2018-04-08T01:09:22.860Z,14.60
2018-04-08T01:11:50.472Z,12.50
2018-04-08T01:14:18.021Z,14.77
2018-04-08T01:16:45.564Z,14.70
2018-04-08T01:19:13.118Z,15.27
2018-04-08T01:21:40.668Z,15.77
2018-04-08T01:24:08.249Z,14.63
2018-04-08T01:26:35.810Z,14.00
2018-04-08T01:29:03.414Z,15.23
2018-04-08T01:31:30.969Z,15.00
2018-04-08T01:33:58.506Z,14.80
2018-04-08T01:36:26.098Z,15.57
2018-04-08T01:38:53.671Z,14.83
2018-04-08T01:41:21.372Z,14.60
2018-04-08T01:43:48.913Z,14.70
2018-04-08T01:46:16.504Z,14.20
2018-04-08T01:48:44.056Z,17.43
2018-04-08T01:51:11.609Z,15.90
2018-04-08T01:53:39.221Z,15.20
2018-04-08T01:56:06.777Z,16.53
2018-04-08T01:58:34.328Z,18.37
2018-04-08T02:01:01.938Z,16.10
2018-04-08T02:03:29.518Z,15.90
2018-04-08T02:05:57.055Z,15.50
2018-04-08T02:08:24.663Z,16.70
2018-04-08T02:10:52.208Z,16.57
2018-04-08T02:13:19.745Z,16.40
2018-04-08T02:15:47.304Z,14.30
2018-04-08T02:18:14.857Z,16.10
2018-04-08T02:20:42.465Z,15.20
2018-04-08T02:23:10.011Z,16.63
2018-04-08T02:25:37.580Z,15.33
2018-04-08T02:28:05.190Z,15.83
2018-04-08T02:30:32.737Z,15.43
2018-04-08T02:33:00.347Z,16.40
2018-04-08T02:35:27.897Z,15.87
2018-04-08T02:37:55.434Z,15.77
2018-04-08T02:40:23.040Z,15.80
2018-04-08T02:42:50.588Z,15.13
2018-04-08T02:45:18.129Z,14.80
2018-04-08T02:47:45.710Z,16.47
2018-04-08T02:50:13.255Z,16.83
2018-04-08T02:52:40.829Z,15.97
2018-04-08T02:55:08.392Z,15.40
2018-04-08T02:57:35.997Z,16.00
2018-04-08T03:00:03.558Z,14.23
2018-04-08T03:02:31.113Z,15.30
2018-04-08T03:04:58.674Z,16.13
2018-04-08T03:07:26.231Z,15.30
2018-04-08T03:09:53.789Z,14.93
2018-04-08T03:12:21.418Z,15.00
2018-04-08T03:14:48.984Z,15.60
2018-04-08T03:17:16.615Z,15.60
2018-04-08T03:19:44.192Z,15.20
2018-04-08T03:22:11.752Z,16.40
2018-04-08T03:24:39.291Z,16.47
2018-04-08T03:27:07.263Z,14.23
2018-04-08T03:29:34.815Z,14.40
2018-04-08T03:32:02.363Z,17.13
2018-04-08T03:34:29.961Z,15.73
2018-04-08T03:36:57.520Z,15.37
2018-04-08T03:39:25.083Z,14.77
2018-04-08T03:41:52.642Z,16.83
2018-04-08T03:44:20.196Z,15.27
2018-04-08T03:46:47.759Z,15.20
2018-04-08T03:49:15.309Z,16.30
2018-04-08T03:51:42.886Z,14.80
2018-04-08T03:54:10.507Z,16.13
2018-04-08T03:56:38.069Z,15.37
2018-04-08T03:59:05.622Z,15.13
2018-04-08T04:01:33.204Z,15.50
2018-04-08T04:04:00.760Z,15.77
2018-04-08T04:06:28.374Z,17.00
2018-04-08T04:08:55.915Z,16.13
2018-04-08T04:11:23.455Z,16.00
2018-04-08T04:13:51.045Z,15.10
2018-04-08T04:16:18.609Z,15.53
2018-04-08T04:18:58.029Z,15.97
2018-04-08T04:21:37.473Z,17.20
2018-04-08T04:27:09.302Z,14.93
2018-04-08T04:29:36.923Z,15.33
2018-04-08T04:32:04.476Z,14.70
2018-04-08T04:34:32.032Z,15.60
2018-04-08T04:36:59.652Z,14.80
2018-04-08T04:39:27.197Z,15.10
2018-04-08T04:41:54.752Z,16.50
2018-04-08T04:44:22.658Z,14.70
2018-04-08T04:46:50.208Z,14.50
2018-04-08T04:49:17.756Z,15.10
2018-04-08T04:51:45.319Z,15.90
2018-04-08T04:54:12.894Z,15.27
2018-04-08T04:56:40.442Z,16.00
2018-04-08T04:59:08.086Z,14.37
2018-04-08T05:01:35.639Z,16.83
2018-04-08T05:04:03.203Z,14.03
2018-04-08T05:06:30.781Z,15.00
2018-04-08T05:08:58.334Z,14.70
2018-04-08T05:11:25.947Z,15.70
2018-04-08T05:13:53.531Z,15.03
2018-04-08T05:16:21.076Z,14.53
2018-04-08T05:18:48.647Z,15.70
2018-04-08T05:21:16.192Z,14.30
2018-04-08T05:23:43.760Z,15.70
2018-04-08T05:26:11.329Z,13.57
2018-04-08T05:28:39.288Z,15.90
2018-04-08T05:31:06.832Z,14.60
2018-04-08T05:33:34.394Z,15.10
2018-04-08T05:36:01.976Z,37.13
2018-04-08T05:38:29.531Z,16.53
2018-04-08T05:40:57.127Z,17.30
2018-04-08T05:43:24.693Z,15.87
2018-04-08T05:45:52.259Z,14.93
2018-04-08T05:48:19.812Z,17.23
2018-04-08T05:50:47.390Z,17.10
2018-04-08T05:53:14.983Z,17.77
2018-04-08T05:55:42.542Z,17.10
2018-04-08T05:58:10.074Z,15.57
2018-04-08T06:00:37.672Z,16.13
2018-04-08T06:03:05.243Z,19.33
2018-04-08T06:05:32.796Z,18.17
2018-04-08T06:08:00.390Z,17.60
2018-04-08T06:10:27.953Z,18.20
2018-04-08T06:12:55.516Z,17.30
2018-04-08T06:15:23.072Z,18.40
2018-04-08T06:17:50.602Z,16.67
2018-04-08T06:20:18.211Z,16.67
2018-04-08T06:22:45.765Z,15.40
2018-04-08T06:25:13.325Z,15.67
2018-04-08T06:27:41.263Z,16.70
2018-04-08T06:30:08.836Z,17.20
2018-04-08T06:32:36.395Z,19.20
2018-04-08T06:35:04.002Z,16.47
2018-04-08T06:37:31.566Z,18.03
2018-04-08T06:39:59.149Z,16.70
2018-04-08T06:42:26.737Z,17.10
2018-04-08T06:44:54.593Z,17.43
2018-04-08T06:47:22.204Z,16.30
2018-04-08T06:49:49.806Z,15.73
2018-04-08T06:52:17.365Z,14.57
2018-04-08T06:54:44.926Z,14.43
2018-04-08T06:57:12.865Z,15.30
2018-04-08T06:59:40.467Z,13.57
2018-04-08T07:02:08.002Z,12.90
2018-04-08T07:04:36.134Z,13.77
2018-04-08T07:07:03.679Z,12.90
2018-04-08T07:09:31.249Z,13.60
2018-04-08T07:11:58.830Z,13.40
2018-04-08T07:14:26.395Z,12.70
2018-04-08T07:16:54.036Z,14.60
2018-04-08T07:19:21.597Z,14.70
2018-04-08T07:21:49.144Z,13.40
2018-04-08T07:24:16.720Z,13.90
2018-04-08T07:26:44.311Z,12.77
2018-04-08T07:29:11.851Z,12.83
2018-04-08T07:31:39.424Z,14.37
2018-04-08T07:34:07.376Z,12.77
2018-04-08T07:36:34.918Z,13.40
2018-04-08T07:39:02.480Z,12.23
2018-04-08T07:41:30.092Z,14.43
2018-04-08T07:43:57.673Z,14.40
2018-04-08T07:46:25.269Z,13.63
2018-04-08T07:48:52.851Z,13.37
2018-04-08T07:51:20.400Z,12.47
2018-04-08T07:53:47.997Z,13.07
2018-04-08T07:56:15.580Z,13.50
2018-04-08T07:58:43.175Z,13.17
2018-04-08T08:01:10.800Z,13.20
2018-04-08T08:03:38.351Z,12.17
2018-04-08T08:06:05.901Z,11.90
2018-04-08T08:08:33.473Z,12.23
2018-04-08T08:11:01.019Z,10.83
2018-04-08T08:13:28.587Z,10.90
2018-04-08T08:15:56.135Z,12.87
2018-04-08T08:18:23.866Z,12.63
2018-04-08T08:20:51.402Z,12.10
2018-04-08T08:23:18.958Z,10.87
2018-04-08T08:25:46.579Z,10.40
2018-04-08T08:28:14.124Z,12.17
2018-04-08T08:30:41.658Z,11.50
2018-04-08T08:33:09.260Z,11.93
2018-04-08T08:35:36.849Z,10.60
2018-04-08T08:38:04.435Z,12.10
2018-04-08T08:40:31.996Z,11.33
2018-04-08T08:42:59.563Z,11.50
2018-04-08T08:45:27.132Z,11.40
2018-04-08T08:47:54.699Z,11.60
2018-04-08T08:50:22.285Z,12.00
2018-04-08T08:52:49.840Z,10.33
2018-04-08T08:55:17.428Z,11.40
2018-04-08T08:57:44.977Z,10.40
2018-04-08T09:00:12.548Z,10.07
2018-04-08T09:02:40.102Z,10.00
2018-04-08T09:05:07.680Z,9.90
2018-04-08T09:07:35.236Z,9.60
2018-04-08T09:10:02.863Z,11.40
2018-04-08T09:12:30.413Z,9.77
2018-04-08T09:14:57.958Z,11.10
2018-04-08T09:17:25.598Z,10.80
2018-04-08T09:23:00.508Z,11.40
2018-04-08T09:25:28.596Z,11.07
2018-04-08T09:27:56.127Z,9.83
2018-04-08T09:30:23.678Z,9.43
2018-04-08T09:32:51.219Z,10.10
2018-04-08T09:35:18.860Z,10.40
2018-04-08T09:37:46.407Z,9.60
2018-04-08T09:40:13.948Z,9.30
2018-04-08T09:42:41.593Z,8.17
2018-04-08T09:45:09.188Z,9.10
2018-04-08T09:47:36.756Z,8.93
2018-04-08T09:50:04.319Z,8.57
2018-04-08T09:52:31.901Z,9.37
2018-04-08T09:54:59.475Z,8.30
2018-04-08T09:57:30.047Z,10.30
2018-04-08T09:59:57.605Z,8.73
2018-04-08T10:05:29.275Z,9.20
2018-04-08T10:07:56.870Z,9.80
2018-04-08T10:10:24.420Z,8.53
2018-04-08T10:12:51.985Z,9.60
2018-04-08T10:15:19.595Z,9.20
2018-04-08T10:17:47.148Z,9.57
2018-04-08T10:20:14.694Z,8.60
2018-04-08T10:22:42.278Z,8.90
2018-04-08T10:25:09.840Z,8.90
2018-04-08T10:27:37.411Z,10.73
2018-04-08T10:30:04.961Z,10.03
2018-04-08T10:32:32.536Z,11.37
2018-04-08T10:35:00.169Z,8.97
2018-04-08T10:37:27.728Z,9.60
2018-04-08T10:39:55.327Z,9.67
2018-04-08T10:42:22.881Z,10.47
2018-04-08T10:44:50.450Z,9.13
2018-04-08T10:47:18.068Z,9.20
2018-04-08T10:49:45.612Z,8.80
2018-04-08T10:52:13.163Z,8.10
2018-04-08T10:54:40.731Z,9.40
2018-04-08T10:57:08.672Z,9.33
2018-04-08T10:59:36.233Z,10.80
2018-04-08T11:02:03.784Z,9.43
2018-04-08T11:04:31.356Z,10.90
2018-04-08T11:06:58.891Z,9.37
2018-04-08T11:09:26.464Z,8.80
2018-04-08T11:11:54.020Z,8.60
2018-04-08T11:14:21.601Z,10.07
2018-04-08T11:16:49.159Z,8.53
2018-04-08T11:19:16.743Z,7.40
2018-04-08T11:21:44.289Z,9.10
2018-04-08T11:24:11.840Z,9.57
2018-04-08T11:26:39.404Z,9.27
2018-04-08T11:29:06.981Z,9.70
2018-04-08T11:31:34.594Z,8.83
2018-04-08T11:34:02.122Z,8.57
2018-04-08T11:36:29.679Z,7.17
2018-04-08T11:38:57.272Z,8.03
2018-04-08T11:41:24.830Z,7.03
2018-04-08T11:43:52.396Z,7.87
2018-04-08T11:46:19.968Z,7.90
2018-04-08T11:48:47.516Z,8.23
2018-04-08T11:51:15.101Z,7.90
2018-04-08T11:53:42.648Z,8.80
2018-04-08T11:56:10.217Z,8.20
2018-04-08T11:58:37.812Z,7.50
2018-04-08T12:01:05.425Z,6.90
2018-04-08T12:03:33.005Z,8.17
2018-04-08T12:06:00.585Z,7.67
2018-04-08T12:08:28.118Z,6.80
2018-04-08T12:10:55.664Z,6.80
2018-04-08T12:13:23.236Z,6.40
2018-04-08T12:15:50.851Z,7.10
2018-04-08T12:18:18.405Z,8.13
2018-04-08T12:20:45.993Z,7.30
2018-04-08T12:23:13.582Z,7.77
2018-04-08T12:25:41.151Z,7.30
2018-04-08T12:28:09.089Z,8.93
2018-04-08T12:30:36.635Z,6.97
2018-04-08T12:33:04.226Z,8.40
2018-04-08T12:35:31.801Z,9.10
2018-04-08T12:37:59.353Z,8.30
2018-04-08T12:40:26.940Z,8.53
2018-04-08T12:42:54.496Z,9.50
2018-04-08T12:45:22.034Z,8.67
2018-04-08T12:47:49.607Z,10.13
2018-04-08T12:50:17.178Z,8.50
2018-04-08T12:52:44.792Z,9.67
2018-04-08T12:55:12.365Z,10.20
2018-04-08T12:57:39.928Z,10.47
2018-04-08T13:00:07.521Z,10.70
2018-04-08T13:02:35.067Z,9.60
2018-04-08T13:05:02.993Z,10.07
2018-04-08T13:07:30.548Z,10.77
2018-04-08T13:09:58.098Z,9.37
2018-04-08T13:12:25.680Z,8.70
2018-04-08T13:14:53.251Z,10.53
2018-04-08T13:17:20.810Z,9.77
2018-04-08T13:19:48.360Z,9.23
2018-04-08T13:22:15.949Z,9.80
2018-04-08T13:24:43.506Z,8.70
2018-04-08T13:27:11.069Z,10.73
2018-04-08T13:29:38.644Z,9.73
2018-04-08T13:32:06.209Z,9.37
2018-04-08T13:34:33.812Z,9.70
2018-04-08T13:37:01.369Z,10.30
2018-04-08T13:39:28.925Z,10.10
2018-04-08T13:41:56.488Z,9.80
2018-04-08T13:44:24.097Z,10.30
2018-04-08T13:46:51.641Z,9.83
2018-04-08T13:49:19.180Z,8.67
2018-04-08T13:51:46.774Z,8.20
2018-04-08T13:54:14.321Z,7.67
2018-04-08T13:56:41.874Z,9.40
2018-04-08T13:59:09.480Z,8.73
2018-04-08T14:01:37.044Z,6.90
2018-04-08T14:04:04.584Z,9.10
2018-04-08T14:06:32.150Z,8.37
2018-04-08T14:08:59.764Z,10.03
2018-04-08T14:11:27.326Z,9.07
2018-04-08T14:13:54.863Z,9.13
2018-04-08T14:16:22.445Z,10.87
2018-04-08T14:18:49.983Z,10.87
2018-04-08T14:21:17.576Z,10.43
2018-04-08T14:23:45.132Z,10.80
2018-04-08T14:26:12.688Z,9.60
2018-04-08T14:28:40.288Z,9.97
2018-04-08T14:31:07.835Z,10.37
2018-04-08T14:33:35.389Z,10.00
2018-04-08T14:36:02.985Z,11.10
2018-04-08T14:38:30.548Z,9.80
2018-04-08T14:40:58.590Z,11.80
2018-04-08T14:43:26.149Z,10.17
2018-04-08T14:45:53.687Z,11.07
2018-04-08T14:48:21.286Z,10.50
2018-04-08T14:50:48.838Z,9.00
2018-04-08T14:53:16.405Z,8.50
2018-04-08T14:55:43.994Z,8.90
2018-04-08T14:58:11.552Z,9.50
2018-04-08T15:00:39.208Z,8.50
2018-04-08T15:03:06.790Z,8.27
2018-04-08T15:05:34.353Z,7.10
2018-04-08T15:08:01.936Z,8.27
2018-04-08T15:10:29.504Z,8.77
2018-04-08T15:12:57.089Z,7.30
2018-04-08T15:15:24.648Z,8.87
2018-04-08T15:17:52.228Z,8.27
2018-04-08T15:20:19.775Z,7.47
2018-04-08T15:22:47.342Z,7.87
2018-04-08T15:25:14.934Z,8.37
2018-04-08T15:27:42.470Z,8.60
2018-04-08T15:30:10.019Z,7.73
2018-04-08T15:32:37.589Z,6.70
2018-04-08T15:35:05.141Z,7.23
2018-04-08T15:37:32.742Z,7.50
2018-04-08T15:40:00.288Z,7.13
2018-04-08T15:42:27.879Z,8.60
2018-04-08T15:44:55.465Z,8.80
2018-04-08T15:47:22.998Z,11.77
2018-04-08T15:49:50.554Z,10.10
2018-04-08T15:52:18.139Z,10.50
2018-04-08T15:54:45.685Z,9.30
2018-04-08T15:57:13.288Z,8.00
2018-04-08T15:59:40.833Z,7.60
2018-04-08T16:02:08.394Z,7.07
2018-04-08T16:04:36.112Z,7.03
2018-04-08T16:07:03.674Z,8.03
2018-04-08T16:09:31.240Z,7.53
2018-04-08T16:11:58.807Z,7.80
2018-04-08T16:14:26.360Z,8.27
2018-04-08T16:16:53.974Z,7.70
2018-04-08T16:19:21.543Z,10.10
2018-04-08T16:21:49.124Z,9.87
2018-04-08T16:24:16.698Z,8.80
2018-04-08T16:26:44.266Z,8.40
2018-04-08T16:29:11.824Z,8.50
2018-04-08T16:31:39.382Z,8.57
2018-04-08T16:34:06.956Z,8.17
2018-04-08T16:36:34.539Z,11.10
2018-04-08T16:39:02.093Z,10.90
2018-04-08T16:41:29.663Z,10.10
2018-04-08T16:43:57.235Z,8.10
2018-04-08T16:46:24.809Z,9.00
2018-04-08T16:48:52.362Z,7.47
2018-04-08T16:51:19.929Z,7.10
2018-04-08T16:53:47.577Z,6.53
2018-04-08T16:56:15.131Z,6.97
2018-04-08T16:58:42.712Z,6.73
2018-04-08T17:01:10.265Z,6.30
2018-04-08T17:03:37.831Z,6.63
2018-04-08T17:06:05.390Z,6.23
2018-04-08T17:08:32.984Z,7.93
2018-04-08T17:11:00.529Z,6.60
2018-04-08T17:13:28.132Z,6.97
2018-04-08T17:15:56.072Z,5.90
2018-04-08T17:18:23.612Z,6.20
2018-04-08T17:20:51.162Z,6.47
2018-04-08T17:23:18.779Z,6.37
2018-04-08T17:25:46.343Z,6.80
2018-04-08T17:28:13.905Z,6.13
2018-04-08T17:30:41.506Z,5.70
2018-04-08T17:33:09.059Z,4.83
2018-04-08T17:35:36.600Z,5.50
2018-04-08T17:38:04.155Z,5.67
2018-04-08T17:40:31.700Z,6.27
2018-04-08T17:42:59.308Z,6.00
2018-04-08T17:45:26.923Z,5.83
2018-04-08T17:47:54.482Z,5.53
2018-04-08T17:50:22.061Z,5.33
2018-04-08T17:52:49.615Z,5.80
2018-04-08T17:55:17.208Z,5.70
2018-04-08T17:57:44.829Z,4.93
2018-04-08T18:00:12.370Z,5.53
2018-04-08T18:02:39.923Z,4.80
2018-04-08T18:05:07.500Z,12.50
2018-04-08T18:07:35.043Z,36.67
2018-04-08T18:10:02.654Z,10.40
2018-04-08T18:12:30.216Z,7.80
2018-04-08T18:14:57.762Z,5.00
2018-04-08T18:17:25.352Z,5.10
2018-04-08T18:19:52.887Z,6.60
2018-04-08T18:22:20.869Z,7.17
2018-04-08T18:24:48.436Z,6.30
2018-04-08T18:27:15.981Z,5.10
2018-04-08T18:29:43.562Z,4.87
2018-04-08T18:32:11.100Z,4.87
2018-04-08T18:34:38.648Z,4.97
2018-04-08T18:37:06.339Z,6.27
2018-04-08T18:39:33.885Z,5.53
2018-04-08T18:42:02.019Z,4.97
2018-04-08T18:44:29.940Z,5.10
2018-04-08T18:46:57.488Z,5.77
2018-04-08T18:49:25.029Z,5.03
2018-04-08T18:51:52.591Z,5.30
2018-04-08T18:54:20.163Z,4.90
2018-04-08T18:56:47.726Z,4.90
2018-04-08T18:59:15.277Z,5.90
2018-04-08T19:01:42.849Z,5.60
2018-04-08T19:04:10.378Z,5.70
2018-04-08T19:06:37.968Z,5.37
2018-04-08T19:09:06.295Z,5.30
2018-04-08T19:11:33.836Z,6.03
2018-04-08T19:14:01.769Z,5.30
2018-04-08T19:16:29.310Z,7.10
2018-04-08T19:18:56.853Z,6.07
2018-04-08T19:21:24.429Z,5.43
2018-04-08T19:23:51.958Z,5.70
2018-04-08T19:26:19.556Z,6.83
2018-04-08T19:28:47.157Z,6.77
2018-04-08T19:31:14.710Z,7.20
2018-04-08T19:33:42.265Z,9.10
2018-04-08T19:36:09.843Z,9.97
2018-04-08T19:38:37.690Z,9.80
2018-04-08T19:41:05.290Z,9.40
2018-04-08T19:43:32.836Z,9.37
2018-04-08T19:46:00.425Z,9.93
2018-04-08T19:48:27.962Z,8.83
2018-04-08T19:50:55.953Z,8.40
2018-04-08T19:53:23.616Z,8.60
2018-04-08T19:55:51.151Z,9.57
2018-04-08T19:58:18.761Z,10.50
2018-04-08T20:00:46.309Z,9.87
2018-04-08T20:03:13.866Z,8.70
2018-04-08T20:05:41.436Z,9.53
2018-04-08T20:08:08.967Z,9.60
2018-04-08T20:10:36.578Z,9.20
2018-04-08T20:13:04.115Z,8.80
2018-04-08T20:15:31.662Z,11.63
2018-04-08T20:17:59.231Z,12.57
2018-04-08T20:20:26.802Z,12.33
2018-04-08T20:22:54.405Z,13.90
2018-04-08T20:25:21.954Z,16.00
2018-04-08T20:27:49.508Z,16.53
2018-04-08T20:30:17.083Z,16.50
2018-04-08T20:32:44.635Z,17.00
2018-04-08T20:35:12.244Z,19.53
2018-04-08T20:37:39.793Z,17.57
2018-04-08T20:40:07.351Z,20.10
2018-04-08T20:42:34.951Z,20.60
2018-04-08T20:45:02.507Z,21.30
2018-04-08T20:47:30.060Z,21.80
2018-04-08T20:49:57.640Z,22.80
2018-04-08T20:52:25.201Z,23.40
2018-04-08T20:54:53.262Z,23.27
2018-04-08T20:57:20.822Z,24.67
2018-04-08T20:59:48.466Z,26.00
2018-04-08T21:02:16.037Z,25.70
2018-04-08T21:04:43.603Z,26.77
2018-04-08T21:07:11.143Z,27.33
2018-04-08T21:09:38.708Z,30.87
2018-04-08T21:14:04.387Z,32.43
2018-04-08T21:16:31.946Z,29.57
2018-04-08T21:18:59.518Z,29.97
2018-04-08T21:21:27.066Z,35.50
2018-04-08T21:23:55.063Z,32.67
2018-04-08T21:26:22.612Z,32.87
2018-04-08T21:28:50.151Z,34.77
2018-04-08T21:31:17.721Z,36.20
2018-04-08T21:33:45.278Z,36.07
2018-04-08T21:36:12.853Z,36.03
2018-04-08T21:38:40.405Z,35.47
2018-04-08T21:41:08.009Z,36.73
2018-04-08T21:43:35.564Z,36.13
2018-04-08T21:46:03.103Z,38.73
2018-04-08T21:48:30.704Z,39.07
2018-04-08T21:50:58.264Z,40.90
2018-04-08T21:53:25.814Z,40.97
2018-04-08T21:55:53.411Z,40.30
2018-04-08T21:58:20.981Z,42.07
2018-04-08T22:00:48.550Z,41.70
2018-04-08T22:03:16.110Z,43.73
2018-04-08T22:05:43.708Z,44.63
2018-04-08T22:08:11.267Z,43.97
2018-04-08T22:10:38.803Z,43.77
2018-04-08T22:13:06.380Z,44.80
2018-04-08T22:15:33.963Z,43.07
2018-04-08T22:18:01.550Z,45.43
2018-04-08T22:20:29.159Z,46.10
2018-04-08T22:22:56.723Z,44.43
2018-04-08T22:25:24.280Z,44.60
2018-04-08T22:27:51.844Z,49.20
2018-04-08T22:30:19.399Z,47.10
2018-04-08T22:32:47.011Z,52.83
2018-04-08T22:35:15.492Z,45.60
2018-04-08T22:37:43.053Z,50.63
2018-04-08T22:40:10.678Z,48.03
2018-04-08T22:42:38.244Z,49.80
2018-04-08T22:45:05.805Z,47.43
2018-04-08T22:47:33.420Z,50.00
2018-04-08T22:50:00.972Z,50.60
2018-04-08T22:52:28.536Z,52.43
2018-04-08T22:54:56.661Z,48.60
2018-04-08T22:57:24.248Z,50.57
2018-04-08T22:59:51.901Z,52.50
2018-04-08T23:02:19.447Z,48.77
2018-04-08T23:04:47.001Z,52.03
2018-04-08T23:07:14.571Z,52.87
2018-04-08T23:09:42.137Z,54.50
2018-04-08T23:12:09.731Z,50.67
2018-04-08T23:14:37.276Z,50.37
2018-04-08T23:17:04.828Z,52.73
2018-04-08T23:19:32.431Z,53.20
2018-04-08T23:21:59.972Z,54.50
2018-04-08T23:24:27.520Z,54.67
2018-04-08T23:26:55.082Z,54.57
2018-04-08T23:29:22.666Z,53.40
2018-04-08T23:31:50.220Z,55.20
2018-04-08T23:34:17.783Z,53.47
2018-04-08T23:36:45.355Z,53.03
2018-04-08T23:39:12.928Z,54.43
2018-04-08T23:41:40.909Z,55.00
2018-04-08T23:44:08.476Z,54.93
2018-04-08T23:46:36.063Z,52.53
2018-04-08T23:49:03.660Z,54.17
2018-04-08T23:51:31.213Z,53.10
2018-04-08T23:53:58.782Z,52.90
2018-04-08T23:56:26.360Z,56.53
2018-04-08T23:58:53.907Z,56.37
